Time;durP1;ratioP1;P1;durP2;ratioP2;P2;SDS_P1;SDS_P2;PMS_P1;PMS_P2;Temp;Humidity;BMP_temperature;BMP_pressure;BME280_temperature;BME280_humidity;BME280_pressure;Samples;Min_cycle;Max_cycle;Signal;HPM_P1;HPM_P2
2022/01/28 00:01:45;;;;;;;77.07;26.45;;;;;;;;;;5071096;28;20348;-75
2022/01/28 00:04:17;;;;;;;69.55;25.95;;;;;;;;;;5069593;28;20086;-76
2022/01/28 00:06:42;;;;;;;77.30;26.75;;;;;;;;;;5068482;28;20039;-75
2022/01/28 00:09:08;;;;;;;65.03;25.05;;;;;;;;;;5066513;28;20053;-75
2022/01/28 00:11:33;;;;;;;67.25;24.88;;;;;;;;;;5070005;28;20058;-76
2022/01/28 00:14:29;;;;;;;67.78;25.08;;;;;;;;;;5068746;28;20537;-76
2022/01/28 00:38:08;;;;;;;69.43;25.15;;;;;;;;;;5080891;28;20043;-76
2022/01/28 00:40:35;;;;;;;68.72;24.08;;;;;;;;;;5083081;28;20021;-76
2022/01/28 00:43:02;;;;;;;67.97;24.10;;;;;;;;;;5082374;28;20023;-76
2022/01/28 00:45:27;;;;;;;68.68;25.33;;;;;;;;;;5082545;28;20028;-75
2022/01/28 00:47:53;;;;;;;69.07;26.00;;;;;;;;;;5082469;28;20080;-75
2022/01/28 00:50:19;;;;;;;70.03;24.98;;;;;;;;;;5081646;28;20066;-75
2022/01/28 00:52:45;;;;;;;72.65;25.35;;;;;;;;;;5081685;28;20017;-76
2022/01/28 00:55:10;;;;;;;67.15;25.85;;;;;;;;;;5082024;28;20353;-76
2022/01/28 00:57:36;;;;;;;74.55;26.73;;;;;;;;;;5086473;28;20440;-75
2022/01/28 01:00:04;;;;;;;78.00;26.95;;;;;;;;;;5088387;28;20415;-76
2022/01/28 01:02:29;;;;;;;72.60;26.25;;;;;;;;;;5084390;28;20048;-76
2022/01/28 01:04:55;;;;;;;82.55;27.63;;;;;;;;;;5081747;28;20021;-76
2022/01/28 01:07:20;;;;;;;78.93;29.23;;;;;;;;;;5072016;28;20048;-76
2022/01/28 01:09:48;;;;;;;83.53;28.48;;;;;;;;;;5079033;28;20109;-76
2022/01/28 01:12:17;;;;;;;82.80;28.13;;;;;;;;;;5081911;28;20032;-75
2022/01/28 01:14:43;;;;;;;82.80;27.67;;;;;;;;;;5088341;28;20027;-76
2022/01/28 01:19:42;;;;;;;79.47;26.90;;;;;;;;;;5088594;28;20036;-76
2022/01/28 01:22:09;;;;;;;75.63;26.75;;;;;;;;;;5081584;28;20127;-76
2022/01/28 01:24:37;;;;;;;73.22;26.13;;;;;;;;;;5081781;28;20093;-76
2022/01/28 01:27:04;;;;;;;80.60;27.92;;;;;;;;;;5081396;28;20088;-76
2022/01/28 01:29:29;;;;;;;78.38;26.67;;;;;;;;;;5063904;28;20040;-74
2022/01/28 01:32:03;;;;;;;74.68;27.40;;;;;;;;;;5088076;28;20030;-74
2022/01/28 01:34:28;;;;;;;81.13;26.63;;;;;;;;;;5081683;28;20051;-74
2022/01/28 01:36:54;;;;;;;80.50;27.15;;;;;;;;;;5080310;28;20020;-74
2022/01/28 01:39:26;;;;;;;80.80;26.88;;;;;;;;;;5069097;28;20080;-74
2022/01/28 01:42:11;;;;;;;83.35;26.70;;;;;;;;;;5076398;28;20028;-74
2022/01/28 01:52:52;;;;;;;69.93;24.58;;;;;;;;;;5069188;28;20070;-74
2022/01/28 01:55:17;;;;;;;70.55;25.70;;;;;;;;;;5075477;28;20047;-74
2022/01/28 01:57:44;;;;;;;72.93;26.33;;;;;;;;;;5077982;28;20272;-74
2022/01/28 02:00:11;;;;;;;80.03;27.85;;;;;;;;;;5069540;28;20020;-74
2022/01/28 02:02:36;;;;;;;74.53;25.95;;;;;;;;;;5068334;28;20059;-74
2022/01/28 02:05:03;;;;;;;67.10;25.38;;;;;;;;;;5080309;28;20047;-74
2022/01/28 02:07:29;;;;;;;66.68;24.55;;;;;;;;;;5078834;28;20047;-74
2022/01/28 02:09:54;;;;;;;69.65;24.85;;;;;;;;;;5072225;28;20052;-74
2022/01/28 02:12:19;;;;;;;62.80;24.20;;;;;;;;;;5075212;28;20319;-75
2022/01/28 02:14:45;;;;;;;61.30;22.95;;;;;;;;;;5073054;28;20025;-74
2022/01/28 02:17:11;;;;;;;60.67;24.02;;;;;;;;;;5072357;28;20043;-74
2022/01/28 02:19:38;;;;;;;49.88;21.85;;;;;;;;;;5077486;28;20032;-74
2022/01/28 02:22:03;;;;;;;56.53;21.77;;;;;;;;;;5080448;28;20100;-74
2022/01/28 02:24:35;;;;;;;53.90;22.25;;;;;;;;;;5080734;28;20074;-74
2022/01/28 02:27:01;;;;;;;63.45;23.10;;;;;;;;;;5072574;28;20047;-74
2022/01/28 02:29:32;;;;;;;61.83;24.27;;;;;;;;;;5074396;28;20028;-76
2022/01/28 02:32:01;;;;;;;56.47;22.00;;;;;;;;;;5064175;28;20027;-74
2022/01/28 02:34:28;;;;;;;58.50;23.73;;;;;;;;;;5060052;28;20024;-74
2022/01/28 02:36:55;;;;;;;66.75;25.73;;;;;;;;;;5075443;28;20088;-74
2022/01/28 02:39:20;;;;;;;72.03;26.33;;;;;;;;;;5080731;28;20024;-74
2022/01/28 02:41:49;;;;;;;80.10;27.60;;;;;;;;;;5079985;28;20066;-74
2022/01/28 02:44:40;;;;;;;80.10;26.40;;;;;;;;;;5067796;28;20920;-74
2022/01/28 02:47:11;;;;;;;77.18;26.27;;;;;;;;;;5080282;28;20286;-74
2022/01/28 02:49:37;;;;;;;79.10;26.17;;;;;;;;;;5078340;28;20032;-74
2022/01/28 02:52:03;;;;;;;83.22;25.63;;;;;;;;;;5086820;28;20032;-74
2022/01/28 02:54:30;;;;;;;75.18;26.17;;;;;;;;;;5080291;28;20020;-74
2022/01/28 02:57:01;;;;;;;68.18;24.90;;;;;;;;;;5080040;28;20029;-74
2022/01/28 02:59:27;;;;;;;71.88;24.45;;;;;;;;;;5089232;28;20032;-76
2022/01/28 03:01:52;;;;;;;63.70;22.70;;;;;;;;;;5080996;28;20027;-74
2022/01/28 03:05:02;;;;;;;77.55;24.75;;;;;;;;;;5089401;28;20327;-74
2022/01/28 03:07:04;;;;;;;;;;;;;;;;;;5078750;28;20103;-74
2022/01/28 03:09:47;;;;;;;66.68;22.90;;;;;;;;;;5075187;28;19912;-74
2022/01/28 03:12:16;;;;;;;64.07;22.83;;;;;;;;;;5078786;28;20111;-74
2022/01/28 03:15:20;;;;;;;67.20;23.10;;;;;;;;;;5061749;28;20100;-74
2022/01/28 03:22:44;;;;;;;80.53;25.02;;;;;;;;;;5073503;28;20029;-73
2022/01/28 03:25:10;;;;;;;75.15;24.77;;;;;;;;;;5079266;28;20390;-73
2022/01/28 03:27:51;;;;;;;127.68;26.55;;;;;;;;;;5078426;28;20308;-73
2022/01/28 03:30:17;;;;;;;144.88;28.23;;;;;;;;;;5081123;28;20043;-73
2022/01/28 03:32:42;;;;;;;123.47;30.52;;;;;;;;;;5083670;28;20020;-74
2022/01/28 03:35:10;;;;;;;103.70;27.52;;;;;;;;;;5083627;28;20020;-74
2022/01/28 03:37:35;;;;;;;143.15;28.25;;;;;;;;;;5083413;28;20029;-75
2022/01/28 03:40:02;;;;;;;142.30;29.33;;;;;;;;;;5083546;28;20028;-74
2022/01/28 03:42:27;;;;;;;182.18;30.30;;;;;;;;;;5083324;28;20030;-76
2022/01/28 03:44:53;;;;;;;125.65;28.30;;;;;;;;;;5083939;28;20021;-76
2022/01/28 03:47:18;;;;;;;155.80;28.13;;;;;;;;;;5065884;28;20029;-76
2022/01/28 03:49:43;;;;;;;148.95;27.58;;;;;;;;;;5083415;28;20041;-77
2022/01/28 03:52:09;;;;;;;136.35;28.83;;;;;;;;;;5083143;28;20270;-76
2022/01/28 03:54:34;;;;;;;144.05;29.48;;;;;;;;;;5083607;28;20020;-76
2022/01/28 03:57:00;;;;;;;147.80;30.92;;;;;;;;;;5082431;28;20063;-76
2022/01/28 03:59:25;;;;;;;146.52;30.25;;;;;;;;;;5075951;28;20067;-75
2022/01/28 04:01:51;;;;;;;167.05;32.08;;;;;;;;;;5077553;28;20247;-76
2022/01/28 04:12:38;;;;;;;131.15;30.50;;;;;;;;;;5080999;28;20082;-76
2022/01/28 04:17:33;;;;;;;143.77;31.45;;;;;;;;;;5077302;28;20052;-75
2022/01/28 04:19:58;;;;;;;132.15;28.85;;;;;;;;;;5079866;28;20082;-75
2022/01/28 04:22:25;;;;;;;115.13;27.90;;;;;;;;;;5076387;28;20025;-75
2022/01/28 04:24:51;;;;;;;121.00;27.77;;;;;;;;;;5079652;28;20292;-76
2022/01/28 04:27:16;;;;;;;136.77;28.45;;;;;;;;;;5078741;28;20021;-75
2022/01/28 04:29:42;;;;;;;139.57;30.00;;;;;;;;;;5079992;28;20051;-75
2022/01/28 04:32:08;;;;;;;152.70;30.48;;;;;;;;;;5075050;28;20057;-75
2022/01/28 04:34:34;;;;;;;151.80;30.73;;;;;;;;;;5081693;28;20033;-75
2022/01/28 04:39:56;;;;;;;157.27;30.58;;;;;;;;;;5081410;28;20031;-75
2022/01/28 04:45:22;;;;;;;137.90;29.65;;;;;;;;;;5079053;28;20033;-75
2022/01/28 04:48:08;;;;;;;131.93;28.73;;;;;;;;;;5079574;28;20028;-76
2022/01/28 04:50:48;;;;;;;150.98;29.58;;;;;;;;;;5071387;28;20040;-76
2022/01/28 04:56:23;;;;;;;163.50;30.65;;;;;;;;;;5078409;28;20026;-76
2022/01/28 05:10:13;;;;;;;237.68;28.20;;;;;;;;;;5074635;28;20063;-76
2022/01/28 05:15:21;;;;;;;391.52;31.40;;;;;;;;;;5076008;28;20021;-76
2022/01/28 05:28:21;;;;;;;231.88;26.80;;;;;;;;;;5084137;28;20039;-76
2022/01/28 05:30:47;;;;;;;350.92;28.42;;;;;;;;;;5075414;28;20104;-75
2022/01/28 05:33:12;;;;;;;295.20;29.23;;;;;;;;;;5079826;28;20048;-76
2022/01/28 05:35:37;;;;;;;203.90;27.15;;;;;;;;;;5080697;28;20020;-76
2022/01/28 05:38:03;;;;;;;157.00;25.88;;;;;;;;;;5076932;28;20043;-76
2022/01/28 05:40:28;;;;;;;257.83;31.17;;;;;;;;;;5077000;28;20092;-76
2022/01/28 05:42:54;;;;;;;154.82;26.98;;;;;;;;;;5076680;28;20377;-75
2022/01/28 05:45:19;;;;;;;183.30;27.30;;;;;;;;;;5081010;28;20020;-75
2022/01/28 05:47:44;;;;;;;218.00;26.73;;;;;;;;;;5078530;28;20055;-75
2022/01/28 05:50:12;;;;;;;203.82;26.98;;;;;;;;;;5077791;28;20214;-75
2022/01/28 05:52:37;;;;;;;146.57;29.67;;;;;;;;;;5057685;28;20056;-75
2022/01/28 05:55:03;;;;;;;145.73;26.48;;;;;;;;;;5077945;28;20031;-75
2022/01/28 05:57:28;;;;;;;136.95;24.70;;;;;;;;;;5077485;28;20262;-75
2022/01/28 05:59:54;;;;;;;143.32;26.23;;;;;;;;;;5072530;28;20337;-75
2022/01/28 06:02:19;;;;;;;152.90;26.38;;;;;;;;;;5078669;28;20341;-75
2022/01/28 06:04:45;;;;;;;169.20;26.02;;;;;;;;;;5074970;28;20060;-75
2022/01/28 06:07:11;;;;;;;131.52;26.48;;;;;;;;;;5076776;28;20025;-77
2022/01/28 06:09:36;;;;;;;150.95;28.98;;;;;;;;;;5081434;28;20033;-78
2022/01/28 06:12:02;;;;;;;140.82;27.23;;;;;;;;;;5081410;28;20220;-76
2022/01/28 06:14:27;;;;;;;146.38;27.98;;;;;;;;;;5077454;28;20078;-76
2022/01/28 06:16:52;;;;;;;130.07;26.20;;;;;;;;;;5073416;28;20048;-77
2022/01/28 06:19:18;;;;;;;143.90;26.77;;;;;;;;;;5080345;28;20099;-76
2022/01/28 06:21:43;;;;;;;120.03;25.55;;;;;;;;;;5070153;28;20035;-77
2022/01/28 06:24:08;;;;;;;112.38;25.23;;;;;;;;;;5077227;28;20051;-76
2022/01/28 06:26:34;;;;;;;109.13;24.88;;;;;;;;;;5080366;28;20033;-75
2022/01/28 06:28:59;;;;;;;110.43;26.23;;;;;;;;;;5075369;28;20119;-76
2022/01/28 06:31:25;;;;;;;107.95;24.40;;;;;;;;;;5076980;28;20079;-76
2022/01/28 06:33:50;;;;;;;114.45;25.35;;;;;;;;;;5078600;28;20063;-75
2022/01/28 06:36:16;;;;;;;107.93;26.15;;;;;;;;;;5075271;28;20021;-75
2022/01/28 06:38:41;;;;;;;112.07;25.77;;;;;;;;;;5078184;28;20024;-77
2022/01/28 06:41:07;;;;;;;123.68;25.27;;;;;;;;;;5075267;28;20040;-76
2022/01/28 06:43:32;;;;;;;124.40;26.45;;;;;;;;;;5078309;28;20258;-75
2022/01/28 06:45:57;;;;;;;128.88;25.10;;;;;;;;;;5080255;28;20040;-76
2022/01/28 06:48:23;;;;;;;149.25;26.90;;;;;;;;;;5065803;28;20028;-79
2022/01/28 06:50:48;;;;;;;155.45;28.73;;;;;;;;;;5068582;28;20321;-76
2022/01/28 06:53:14;;;;;;;153.18;28.02;;;;;;;;;;5063487;28;20021;-77
2022/01/28 06:55:41;;;;;;;156.05;26.73;;;;;;;;;;5065003;28;20033;-76
2022/01/28 06:58:10;;;;;;;158.25;28.00;;;;;;;;;;5063088;28;20020;-76
2022/01/28 07:00:40;;;;;;;161.32;28.52;;;;;;;;;;5069503;28;20033;-77
2022/01/28 07:03:09;;;;;;;166.57;29.35;;;;;;;;;;5062076;28;20044;-76
2022/01/28 07:05:35;;;;;;;170.32;29.55;;;;;;;;;;5070659;28;20108;-76
2022/01/28 07:08:01;;;;;;;151.82;27.20;;;;;;;;;;5056983;28;20316;-77
2022/01/28 07:10:27;;;;;;;152.45;27.48;;;;;;;;;;5075913;28;20219;-77
2022/01/28 07:12:54;;;;;;;164.23;29.52;;;;;;;;;;5067960;28;20115;-77
2022/01/28 07:15:24;;;;;;;160.32;28.40;;;;;;;;;;5063063;28;20247;-77
2022/01/28 07:17:54;;;;;;;167.88;28.98;;;;;;;;;;5064696;28;20036;-76
2022/01/28 07:20:20;;;;;;;169.07;29.33;;;;;;;;;;5064497;28;20055;-76
2022/01/28 07:22:45;;;;;;;166.88;29.67;;;;;;;;;;5066075;28;20017;-76
2022/01/28 07:25:10;;;;;;;165.75;29.73;;;;;;;;;;5064567;28;20052;-76
2022/01/28 07:27:36;;;;;;;172.32;28.73;;;;;;;;;;5063384;28;20017;-76
2022/01/28 07:30:05;;;;;;;173.35;30.50;;;;;;;;;;5063531;28;20033;-76
2022/01/28 07:32:31;;;;;;;168.40;29.67;;;;;;;;;;5065439;28;20314;-76
2022/01/28 07:34:56;;;;;;;164.32;30.55;;;;;;;;;;5074666;28;20028;-77
2022/01/28 07:37:21;;;;;;;180.10;30.08;;;;;;;;;;5079492;28;20032;-76
2022/01/28 07:39:47;;;;;;;176.98;29.15;;;;;;;;;;5075215;28;20033;-77
2022/01/28 07:42:12;;;;;;;170.70;29.85;;;;;;;;;;5072349;28;20024;-77
2022/01/28 07:44:38;;;;;;;159.52;27.98;;;;;;;;;;5074590;28;20031;-76
2022/01/28 07:47:04;;;;;;;163.55;28.58;;;;;;;;;;5083342;28;20020;-76
2022/01/28 07:49:29;;;;;;;178.35;29.48;;;;;;;;;;5081947;28;20032;-76
2022/01/28 07:51:55;;;;;;;166.55;29.50;;;;;;;;;;5082841;28;20056;-77
2022/01/28 07:54:20;;;;;;;168.35;29.05;;;;;;;;;;5079098;28;20532;-78
2022/01/28 07:56:47;;;;;;;185.73;29.73;;;;;;;;;;5084582;28;20020;-77
2022/01/28 07:59:13;;;;;;;159.05;30.35;;;;;;;;;;5076385;28;20017;-77
2022/01/28 08:01:38;;;;;;;157.88;27.90;;;;;;;;;;5069424;28;20025;-77
2022/01/28 08:04:04;;;;;;;152.52;29.75;;;;;;;;;;5076114;28;20063;-77
2022/01/28 08:06:30;;;;;;;149.52;28.70;;;;;;;;;;5078065;28;20036;-77
2022/01/28 08:08:58;;;;;;;148.15;28.15;;;;;;;;;;5072655;28;20043;-77
2022/01/28 08:11:24;;;;;;;155.77;29.70;;;;;;;;;;5073608;28;20041;-77
2022/01/28 08:13:50;;;;;;;155.32;29.23;;;;;;;;;;5087079;28;20349;-77
2022/01/28 08:16:15;;;;;;;156.40;27.50;;;;;;;;;;5083295;28;20051;-77
2022/01/28 08:18:41;;;;;;;155.48;29.35;;;;;;;;;;5078198;28;20408;-77
2022/01/28 08:21:06;;;;;;;152.35;28.75;;;;;;;;;;5076031;28;20317;-78
2022/01/28 08:23:32;;;;;;;147.00;29.42;;;;;;;;;;5078598;28;20324;-77
2022/01/28 08:25:57;;;;;;;138.90;28.75;;;;;;;;;;5078194;28;20038;-78
2022/01/28 08:28:23;;;;;;;134.75;29.33;;;;;;;;;;5080317;28;20028;-78
2022/01/28 08:30:48;;;;;;;147.00;28.35;;;;;;;;;;5077738;28;20024;-78
2022/01/28 08:33:14;;;;;;;145.75;28.55;;;;;;;;;;5080914;28;20024;-78
2022/01/28 08:35:40;;;;;;;144.43;28.35;;;;;;;;;;5082399;28;20433;-78
2022/01/28 08:38:15;;;;;;;140.45;28.27;;;;;;;;;;5077984;28;20056;-78
2022/01/28 08:40:41;;;;;;;133.20;28.75;;;;;;;;;;5074537;28;20032;-78
2022/01/28 08:43:06;;;;;;;150.18;29.98;;;;;;;;;;5075829;28;20097;-77
2022/01/28 08:45:32;;;;;;;130.73;27.77;;;;;;;;;;5082633;28;20167;-78
2022/01/28 08:47:57;;;;;;;142.30;30.30;;;;;;;;;;5059587;28;20070;-78
2022/01/28 08:50:22;;;;;;;123.15;28.05;;;;;;;;;;5082407;28;20099;-78
2022/01/28 08:52:48;;;;;;;133.77;28.60;;;;;;;;;;5078033;28;20140;-77
2022/01/28 08:55:14;;;;;;;146.45;29.38;;;;;;;;;;5063904;28;20259;-78
2022/01/28 08:57:43;;;;;;;128.18;28.75;;;;;;;;;;5077953;28;20033;-78
2022/01/28 09:00:12;;;;;;;109.97;27.00;;;;;;;;;;5081162;28;20316;-78
2022/01/28 09:02:37;;;;;;;123.63;27.98;;;;;;;;;;5078709;28;20148;-78
2022/01/28 09:05:02;;;;;;;123.15;28.95;;;;;;;;;;5078832;28;20033;-78
2022/01/28 09:07:28;;;;;;;126.53;30.58;;;;;;;;;;5071728;28;20088;-78
2022/01/28 09:09:58;;;;;;;121.75;28.45;;;;;;;;;;5079692;28;20032;-78
2022/01/28 09:12:46;;;;;;;126.10;28.33;;;;;;;;;;5063455;28;20036;-78
2022/01/28 09:15:12;;;;;;;114.25;27.40;;;;;;;;;;5076246;28;20067;-77
2022/01/28 09:17:37;;;;;;;115.63;28.40;;;;;;;;;;5075118;28;20075;-78
2022/01/28 09:20:03;;;;;;;114.45;27.85;;;;;;;;;;5080363;28;20312;-78
2022/01/28 09:22:29;;;;;;;104.00;26.75;;;;;;;;;;5079376;28;20039;-78
2022/01/28 09:24:55;;;;;;;107.97;27.73;;;;;;;;;;5081527;28;20032;-78
2022/01/28 09:27:21;;;;;;;101.00;26.17;;;;;;;;;;5084185;28;20043;-78
2022/01/28 09:29:47;;;;;;;98.90;26.92;;;;;;;;;;5080345;28;20040;-78
2022/01/28 09:32:12;;;;;;;94.38;25.80;;;;;;;;;;5065631;28;20021;-78
2022/01/28 09:34:37;;;;;;;104.35;26.48;;;;;;;;;;5074093;28;20036;-77
2022/01/28 09:37:03;;;;;;;92.63;23.80;;;;;;;;;;5073508;28;20269;-77
2022/01/28 09:39:30;;;;;;;82.18;23.98;;;;;;;;;;5074241;28;20043;-78
2022/01/28 09:42:02;;;;;;;91.82;26.17;;;;;;;;;;5073084;28;20302;-77
2022/01/28 09:44:30;;;;;;;80.70;24.27;;;;;;;;;;5077380;28;20032;-77
2022/01/28 09:46:58;;;;;;;89.50;24.50;;;;;;;;;;5076540;28;20020;-78
2022/01/28 09:49:24;;;;;;;81.75;24.25;;;;;;;;;;5071526;28;20036;-78
2022/01/28 09:51:49;;;;;;;80.72;22.92;;;;;;;;;;5073610;28;20029;-78
2022/01/28 09:54:15;;;;;;;90.45;24.52;;;;;;;;;;5076472;28;20032;-78
2022/01/28 09:56:41;;;;;;;90.43;25.70;;;;;;;;;;5066390;28;20050;-77
2022/01/28 09:59:06;;;;;;;90.75;24.98;;;;;;;;;;5076742;28;20103;-77
2022/01/28 10:01:31;;;;;;;86.97;25.35;;;;;;;;;;5071738;28;20028;-77
2022/01/28 10:04:05;;;;;;;86.95;24.40;;;;;;;;;;5069768;28;20101;-78
2022/01/28 10:06:33;;;;;;;81.15;24.23;;;;;;;;;;5073837;28;20077;-77
2022/01/28 10:09:01;;;;;;;86.63;25.33;;;;;;;;;;5077315;28;20036;-78
2022/01/28 10:11:27;;;;;;;86.20;25.63;;;;;;;;;;5076323;28;20083;-77
2022/01/28 10:13:56;;;;;;;79.30;23.88;;;;;;;;;;5062935;28;20432;-78
2022/01/28 10:16:27;;;;;;;86.80;25.92;;;;;;;;;;5087339;28;20028;-77
2022/01/28 10:19:04;;;;;;;72.50;23.23;;;;;;;;;;5076123;28;20347;-77
2022/01/28 10:21:40;;;;;;;78.55;24.45;;;;;;;;;;5085415;28;20028;-77
2022/01/28 10:24:21;;;;;;;73.28;24.63;;;;;;;;;;5075427;28;20016;-77
2022/01/28 10:26:56;;;;;;;74.03;24.27;;;;;;;;;;5081975;28;20251;-77
2022/01/28 10:29:28;;;;;;;69.13;23.67;;;;;;;;;;5080945;28;20032;-78
2022/01/28 10:32:02;;;;;;;64.80;22.10;;;;;;;;;;5080497;28;20020;-77
2022/01/28 10:34:36;;;;;;;67.60;23.60;;;;;;;;;;5081042;28;20028;-77
2022/01/28 10:37:28;;;;;;;68.53;23.67;;;;;;;;;;5080022;28;20051;-77
2022/01/28 10:39:57;;;;;;;62.70;22.55;;;;;;;;;;5074907;28;20024;-77
2022/01/28 10:42:25;;;;;;;69.18;22.67;;;;;;;;;;5080246;28;20020;-77
2022/01/28 10:44:54;;;;;;;67.47;22.65;;;;;;;;;;5080419;28;20158;-77
2022/01/28 10:47:42;;;;;;;64.03;23.77;;;;;;;;;;5080050;28;20279;-78
2022/01/28 10:50:35;;;;;;;62.05;22.48;;;;;;;;;;5080185;28;20032;-77
2022/01/28 10:53:15;;;;;;;65.45;23.23;;;;;;;;;;5073218;28;20040;-77
2022/01/28 10:55:57;;;;;;;72.03;25.02;;;;;;;;;;5078061;28;20308;-77
2022/01/28 10:58:28;;;;;;;59.50;21.70;;;;;;;;;;5080084;28;20249;-78
2022/01/28 11:00:57;;;;;;;55.45;21.90;;;;;;;;;;5077073;28;20035;-78
2022/01/28 11:03:27;;;;;;;54.90;21.90;;;;;;;;;;5032134;28;20238;-78
2022/01/28 11:05:58;;;;;;;56.08;20.60;;;;;;;;;;5058437;28;20029;-77
2022/01/28 11:08:25;;;;;;;58.92;21.42;;;;;;;;;;5059980;28;20040;-78
2022/01/28 11:10:51;;;;;;;51.08;19.40;;;;;;;;;;5060172;28;20104;-77
2022/01/28 11:13:17;;;;;;;53.00;19.45;;;;;;;;;;5060026;28;20328;-78
2022/01/28 11:15:43;;;;;;;46.80;17.90;;;;;;;;;;5060063;28;20028;-78
2022/01/28 11:18:09;;;;;;;47.35;18.13;;;;;;;;;;5039502;28;20033;-77
2022/01/28 11:20:52;;;;;;;41.50;17.15;;;;;;;;;;5059849;28;20037;-77
2022/01/28 11:23:53;;;;;;;43.80;17.33;;;;;;;;;;5063476;28;20025;-77
2022/01/28 11:26:37;;;;;;;39.88;16.15;;;;;;;;;;5043405;28;20333;-77
2022/01/28 11:29:18;;;;;;;44.88;18.17;;;;;;;;;;5070597;28;20029;-77
2022/01/28 11:31:49;;;;;;;43.15;17.40;;;;;;;;;;5064731;28;20029;-77
2022/01/28 11:34:26;;;;;;;34.03;13.93;;;;;;;;;;5063929;28;20185;-77
2022/01/28 11:36:55;;;;;;;37.92;15.63;;;;;;;;;;5056684;28;20029;-77
2022/01/28 11:39:38;;;;;;;41.13;18.05;;;;;;;;;;5055504;28;20017;-76
2022/01/28 11:42:10;;;;;;;43.28;18.80;;;;;;;;;;5063022;28;20039;-77
2022/01/28 11:44:44;;;;;;;28.63;13.32;;;;;;;;;;5062794;28;20076;-77
2022/01/28 11:47:19;;;;;;;25.70;10.88;;;;;;;;;;5062244;28;20021;-77
2022/01/28 11:50:11;;;;;;;23.65;10.95;;;;;;;;;;5063954;28;20056;-77
2022/01/28 11:52:40;;;;;;;22.75;9.98;;;;;;;;;;5060557;28;20035;-77
2022/01/28 11:55:15;;;;;;;25.75;11.63;;;;;;;;;;5063365;28;20067;-77
2022/01/28 11:58:03;;;;;;;28.20;12.73;;;;;;;;;;5058946;28;20032;-77
2022/01/28 12:00:42;;;;;;;28.48;10.95;;;;;;;;;;5054880;28;20270;-77
2022/01/28 12:03:15;;;;;;;26.55;11.70;;;;;;;;;;5071659;28;20051;-78
2022/01/28 12:05:40;;;;;;;35.65;13.90;;;;;;;;;;5065405;28;20039;-77
2022/01/28 12:08:06;;;;;;;26.50;12.18;;;;;;;;;;5082949;28;20036;-78
2022/01/28 12:10:39;;;;;;;26.92;11.45;;;;;;;;;;5083268;28;20051;-77
2022/01/28 12:13:06;;;;;;;30.13;14.45;;;;;;;;;;5080439;28;20096;-78
2022/01/28 12:16:10;;;;;;;30.90;13.70;;;;;;;;;;5066126;28;20036;-77
2022/01/28 12:18:48;;;;;;;27.58;12.52;;;;;;;;;;5075257;28;20130;-78
2022/01/28 12:21:37;;;;;;;25.00;11.20;;;;;;;;;;5086699;28;20032;-79
2022/01/28 12:24:21;;;;;;;28.67;13.05;;;;;;;;;;5084614;28;20504;-79
2022/01/28 12:27:00;;;;;;;29.50;12.07;;;;;;;;;;5079054;28;20035;-81
2022/01/28 12:29:31;;;;;;;29.83;11.60;;;;;;;;;;5075107;28;20040;-75
2022/01/28 12:31:58;;;;;;;24.00;10.25;;;;;;;;;;5078364;28;20029;-76
2022/01/28 12:34:23;;;;;;;26.98;11.15;;;;;;;;;;5081190;28;20031;-76
2022/01/28 12:36:49;;;;;;;30.15;13.00;;;;;;;;;;5080779;28;20096;-75
2022/01/28 12:41:55;;;;;;;27.23;11.55;;;;;;;;;;5082299;28;20029;-76
2022/01/28 12:44:21;;;;;;;37.28;15.98;;;;;;;;;;5082385;28;20071;-77
2022/01/28 12:46:55;;;;;;;28.98;13.18;;;;;;;;;;5082244;28;20035;-78
2022/01/28 12:49:32;;;;;;;23.67;10.60;;;;;;;;;;5063902;28;20258;-76
2022/01/28 12:52:00;;;;;;;25.85;10.95;;;;;;;;;;5082078;28;20029;-75
2022/01/28 12:54:43;;;;;;;32.70;15.57;;;;;;;;;;5082042;28;20032;-75
2022/01/28 12:57:10;;;;;;;44.22;21.25;;;;;;;;;;5076269;28;20017;-77
2022/01/28 12:59:37;;;;;;;30.88;15.13;;;;;;;;;;5076012;28;20024;-77
2022/01/28 13:02:02;;;;;;;30.70;13.05;;;;;;;;;;5075320;28;20073;-77
2022/01/28 13:04:51;;;;;;;30.15;15.18;;;;;;;;;;5081771;28;20315;-77
2022/01/28 13:10:00;;;;;;;29.02;13.57;;;;;;;;;;5098582;28;20106;-77
2022/01/28 13:12:31;;;;;;;31.35;13.93;;;;;;;;;;5083715;28;20028;-78
2022/01/28 13:15:04;;;;;;;26.55;12.50;;;;;;;;;;5082014;28;20031;-77
2022/01/28 13:17:30;;;;;;;21.75;11.05;;;;;;;;;;5088127;28;20024;-77
2022/01/28 13:20:09;;;;;;;26.77;11.82;;;;;;;;;;5081699;28;20055;-78
2022/01/28 13:22:35;;;;;;;28.05;10.75;;;;;;;;;;5081411;28;20029;-77
2022/01/28 13:25:00;;;;;;;20.85;10.25;;;;;;;;;;5081684;28;20051;-75
2022/01/28 13:27:41;;;;;;;21.98;10.65;;;;;;;;;;5081308;28;20016;-77
2022/01/28 13:30:15;;;;;;;23.10;9.98;;;;;;;;;;5058431;28;20107;-77
2022/01/28 13:32:47;;;;;;;20.20;9.75;;;;;;;;;;5081203;28;20039;-75
2022/01/28 13:35:22;;;;;;;21.15;10.68;;;;;;;;;;5081301;28;20032;-77
2022/01/28 13:38:01;;;;;;;30.52;11.45;;;;;;;;;;5081086;28;20028;-77
2022/01/28 13:40:27;;;;;;;19.73;9.30;;;;;;;;;;5081265;28;20066;-77
2022/01/28 13:43:12;;;;;;;23.63;9.32;;;;;;;;;;5080636;28;20025;-76
2022/01/28 13:46:04;;;;;;;21.80;10.18;;;;;;;;;;5075322;28;20020;-78
2022/01/28 13:48:33;;;;;;;21.40;9.40;;;;;;;;;;5078387;28;20021;-76
2022/01/28 13:51:09;;;;;;;21.77;9.18;;;;;;;;;;5080683;28;20140;-76
2022/01/28 13:56:26;;;;;;;21.92;10.07;;;;;;;;;;5075914;28;20032;-77
2022/01/28 13:58:53;;;;;;;20.73;8.65;;;;;;;;;;5063317;28;20055;-75
2022/01/28 14:01:25;;;;;;;19.52;9.45;;;;;;;;;;5081260;28;20100;-78
2022/01/28 14:04:01;;;;;;;20.73;9.00;;;;;;;;;;5081507;28;20266;-78
2022/01/28 14:06:31;;;;;;;18.80;7.57;;;;;;;;;;5080753;28;20025;-75
2022/01/28 14:09:10;;;;;;;19.27;8.43;;;;;;;;;;5081060;28;20155;-75
2022/01/28 14:11:48;;;;;;;19.92;8.85;;;;;;;;;;5080201;28;20058;-78
2022/01/28 14:14:30;;;;;;;22.55;9.90;;;;;;;;;;5080673;28;20099;-75
2022/01/28 14:17:07;;;;;;;19.70;9.10;;;;;;;;;;5066974;28;20033;-75
2022/01/28 14:19:36;;;;;;;23.90;11.02;;;;;;;;;;5071363;28;20101;-76
2022/01/28 14:22:02;;;;;;;21.90;9.50;;;;;;;;;;5071044;28;20039;-77
2022/01/28 14:24:33;;;;;;;24.35;10.73;;;;;;;;;;5058537;28;20208;-75
2022/01/28 14:29:48;;;;;;;22.38;8.95;;;;;;;;;;5080166;28;20099;-76
2022/01/28 14:32:22;;;;;;;22.70;9.10;;;;;;;;;;5084842;28;20055;-76
2022/01/28 14:34:50;;;;;;;20.58;9.13;;;;;;;;;;5071534;28;20028;-75
2022/01/28 14:37:17;;;;;;;25.67;11.15;;;;;;;;;;5080188;28;20064;-75
2022/01/28 14:39:43;;;;;;;20.85;9.27;;;;;;;;;;5080424;28;20082;-75
2022/01/28 14:42:11;;;;;;;23.38;10.10;;;;;;;;;;5078966;28;20118;-75
2022/01/28 14:44:39;;;;;;;22.20;9.68;;;;;;;;;;5080527;28;20100;-75
2022/01/28 14:47:05;;;;;;;22.35;10.98;;;;;;;;;;5079277;28;20065;-75
2022/01/28 14:49:31;;;;;;;27.13;11.55;;;;;;;;;;5080262;28;20047;-75
2022/01/28 14:52:00;;;;;;;25.42;11.23;;;;;;;;;;5079860;28;20028;-74
2022/01/28 14:54:29;;;;;;;27.00;10.80;;;;;;;;;;5082621;28;20026;-77
2022/01/28 14:57:07;;;;;;;27.48;12.40;;;;;;;;;;5084736;28;20110;-77
2022/01/28 14:59:33;;;;;;;24.10;11.40;;;;;;;;;;5073366;28;20044;-77
2022/01/28 15:01:58;;;;;;;27.25;11.95;;;;;;;;;;5084476;28;20035;-77
2022/01/28 15:04:24;;;;;;;29.67;12.18;;;;;;;;;;5084532;28;20063;-77
2022/01/28 15:06:49;;;;;;;24.20;11.73;;;;;;;;;;5083930;28;20279;-77
2022/01/28 15:09:17;;;;;;;29.77;11.68;;;;;;;;;;5084318;28;20206;-76
2022/01/28 15:11:49;;;;;;;26.98;12.50;;;;;;;;;;5084210;28;20047;-77
2022/01/28 15:14:18;;;;;;;28.13;11.70;;;;;;;;;;5084312;28;20020;-77
2022/01/28 15:16:45;;;;;;;18.08;7.68;;;;;;;;;;5091005;28;20051;-77
2022/01/28 15:19:11;;;;;;;23.40;10.57;;;;;;;;;;5084816;28;20062;-77
2022/01/28 15:21:37;;;;;;;25.63;11.63;;;;;;;;;;5091104;28;20025;-77
2022/01/28 15:24:03;;;;;;;23.30;10.75;;;;;;;;;;5084361;28;20078;-76
2022/01/28 15:26:29;;;;;;;26.27;10.13;;;;;;;;;;5088848;28;20016;-78
2022/01/28 15:29:07;;;;;;;26.42;12.07;;;;;;;;;;5085783;28;20039;-78
2022/01/28 15:36:55;;;;;;;26.88;9.73;;;;;;;;;;5083146;28;20029;-78
2022/01/28 15:39:21;;;;;;;25.55;10.88;;;;;;;;;;5065878;28;20254;-77
2022/01/28 15:41:46;;;;;;;25.15;10.63;;;;;;;;;;5096401;28;20094;-78
2022/01/28 15:44:12;;;;;;;24.77;10.50;;;;;;;;;;5083494;28;20044;-78
2022/01/28 15:46:37;;;;;;;22.50;11.20;;;;;;;;;;5083540;28;20074;-78
2022/01/28 15:49:05;;;;;;;24.27;10.98;;;;;;;;;;5083454;28;20029;-78
2022/01/28 15:51:30;;;;;;;25.35;10.63;;;;;;;;;;5083162;28;20280;-78
2022/01/28 15:53:56;;;;;;;21.73;10.07;;;;;;;;;;5083518;28;20035;-78
2022/01/28 15:56:21;;;;;;;27.90;11.15;;;;;;;;;;5083010;28;20131;-77
2022/01/28 15:58:46;;;;;;;23.77;10.48;;;;;;;;;;5083570;28;20021;-77
2022/01/28 16:01:12;;;;;;;27.13;10.40;;;;;;;;;;5072058;28;20335;-77
2022/01/28 16:03:37;;;;;;;24.98;9.90;;;;;;;;;;5082996;28;20055;-77